Time;durP1;ratioP1;P1;durP2;ratioP2;P2;SDS_P1;SDS_P2;PMS_P1;PMS_P2;Temp;Humidity;BMP_temperature;BMP_pressure;BME280_temperature;BME280_humidity;BME280_pressure;Samples;Min_cycle;Max_cycle;Signal;HPM_P1;HPM_P2
2022/11/25 00:01:19;;;;;;;27.92;13.70;;;3.70;99.90;;;;;;4997213;28;20109;-66
2022/11/25 00:07:01;;;;;;;36.25;13.75;;;3.60;99.90;;;;;;4997280;28;20084;-66
2022/11/25 00:09:27;;;;;;;32.25;14.73;;;3.60;99.90;;;;;;4996687;28;20033;-66
2022/11/25 00:11:53;;;;;;;74.00;17.00;;;3.50;99.90;;;;;;5001224;28;20030;-66
2022/11/25 00:14:18;;;;;;;46.15;14.82;;;3.50;99.90;;;;;;4998072;28;20041;-66
2022/11/25 00:16:44;;;;;;;30.35;13.98;;;3.50;99.90;;;;;;4998214;28;20030;-66
2022/11/25 00:19:10;;;;;;;27.83;13.32;;;3.50;99.90;;;;;;4999484;28;20505;-68
2022/11/25 00:21:36;;;;;;;33.20;13.32;;;3.50;99.90;;;;;;5001425;28;20030;-66
2022/11/25 00:24:05;;;;;;;29.25;12.98;;;3.50;99.90;;;;;;4997728;28;20248;-66
2022/11/25 00:26:32;;;;;;;22.92;12.50;;;3.40;99.90;;;;;;4999648;28;20042;-66
2022/11/25 00:29:03;;;;;;;20.02;11.52;;;3.40;99.90;;;;;;4999068;28;20476;-66
2022/11/25 00:31:31;;;;;;;;;;;3.30;99.90;;;;;;4996958;28;20066;-66
2022/11/25 00:33:57;;;;;;;16.58;10.70;;;3.30;99.90;;;;;;4996818;28;19909;-66
2022/11/25 00:36:35;;;;;;;22.23;11.32;;;3.30;99.90;;;;;;5000716;28;20109;-65
2022/11/25 00:39:04;;;;;;;26.65;12.48;;;3.20;99.90;;;;;;4995449;28;20033;-67
2022/11/25 00:44:34;;;;;;;60.08;11.52;;;3.20;99.90;;;;;;5000173;28;20393;-66
2022/11/25 00:47:06;;;;;;;155.75;12.15;;;3.20;99.90;;;;;;4995920;28;20033;-66
2022/11/25 00:49:32;;;;;;;45.75;8.27;;;3.20;99.90;;;;;;4997541;28;20493;-66
2022/11/25 00:51:58;;;;;;;35.25;7.60;;;3.20;99.90;;;;;;4996903;28;20050;-66
2022/11/25 00:54:27;;;;;;;96.68;10.25;;;3.20;99.90;;;;;;4998396;28;20710;-66
2022/11/25 00:56:52;;;;;;;92.38;11.30;;;3.20;99.90;;;;;;4996256;28;20030;-66
2022/11/25 00:59:18;;;;;;;85.65;11.13;;;3.20;99.90;;;;;;4994444;28;20382;-66
2022/11/25 01:01:44;;;;;;;119.07;12.23;;;3.20;99.90;;;;;;4999589;28;20172;-66
2022/11/25 01:04:10;;;;;;;113.68;8.75;;;3.20;99.90;;;;;;4996316;28;20029;-67
2022/11/25 01:06:37;;;;;;;74.25;8.73;;;3.20;99.90;;;;;;4995046;28;20037;-66
2022/11/25 01:09:06;;;;;;;134.95;9.85;;;3.10;99.90;;;;;;4995072;28;20113;-66
2022/11/25 01:11:32;;;;;;;89.63;9.38;;;3.20;99.90;;;;;;4997591;28;20103;-66
2022/11/25 01:13:58;;;;;;;88.88;10.43;;;3.10;99.90;;;;;;4998225;28;20034;-67
2022/11/25 01:16:24;;;;;;;108.18;9.32;;;3.10;99.90;;;;;;4998561;28;20029;-66
2022/11/25 01:18:51;;;;;;;98.82;10.30;;;3.20;99.90;;;;;;4996904;28;20030;-66
2022/11/25 01:21:21;;;;;;;78.65;9.75;;;3.30;99.90;;;;;;4996440;28;20026;-66
2022/11/25 01:23:47;;;;;;;39.15;8.10;;;3.30;99.90;;;;;;5001255;28;20034;-66
2022/11/25 01:26:15;;;;;;;70.95;8.20;;;3.30;99.90;;;;;;4999133;28;20033;-67
2022/11/25 01:28:41;;;;;;;61.35;7.60;;;3.30;99.90;;;;;;4994923;28;20138;-66
2022/11/25 01:31:14;;;;;;;103.93;8.60;;;3.30;99.90;;;;;;5002996;28;20418;-66
2022/11/25 01:33:40;;;;;;;80.47;8.73;;;3.30;99.90;;;;;;5001278;28;20149;-67
2022/11/25 01:36:15;;;;;;;99.28;8.98;;;3.40;99.90;;;;;;4998019;28;20389;-66
2022/11/25 01:38:41;;;;;;;72.55;8.70;;;3.40;99.90;;;;;;4996459;28;20034;-66
2022/11/25 01:41:09;;;;;;;88.32;8.50;;;3.30;99.90;;;;;;4999260;28;20030;-66
2022/11/25 01:43:35;;;;;;;82.43;8.75;;;3.30;99.90;;;;;;5004921;28;20034;-66
2022/11/25 01:46:23;;;;;;;51.35;7.32;;;3.40;99.90;;;;;;4996634;28;20481;-67
2022/11/25 01:48:54;;;;;;;67.05;7.65;;;3.30;99.90;;;;;;5001541;28;20033;-66
2022/11/25 01:51:26;;;;;;;70.38;7.78;;;3.40;99.90;;;;;;5001282;28;20444;-66
2022/11/25 01:53:56;;;;;;;66.38;7.82;;;3.30;99.90;;;;;;4993240;28;20561;-67
2022/11/25 01:56:22;;;;;;;141.27;10.95;;;3.30;99.90;;;;;;4997163;28;20091;-66
2022/11/25 01:58:49;;;;;;;121.13;9.90;;;3.40;99.90;;;;;;4997472;28;20026;-67
2022/11/25 02:01:15;;;;;;;141.98;10.60;;;3.30;99.90;;;;;;4997408;28;20026;-67
2022/11/25 02:03:46;;;;;;;76.53;7.68;;;3.40;99.90;;;;;;4996565;28;20109;-67
2022/11/25 02:06:22;;;;;;;76.65;8.05;;;3.40;99.90;;;;;;4994877;28;20030;-67
2022/11/25 02:08:52;;;;;;;44.95;7.85;;;3.30;99.90;;;;;;4996582;28;20026;-67
2022/11/25 02:11:19;;;;;;;66.72;9.00;;;3.40;99.90;;;;;;4999609;28;20493;-66
2022/11/25 02:13:48;;;;;;;78.88;8.88;;;3.30;99.90;;;;;;4995500;28;20048;-67
2022/11/25 02:16:14;;;;;;;58.88;8.30;;;3.30;99.90;;;;;;4995756;28;20013;-66
2022/11/25 02:18:40;;;;;;;88.35;8.73;;;3.30;99.90;;;;;;4994439;28;20117;-67
2022/11/25 02:21:06;;;;;;;92.40;10.70;;;3.20;99.90;;;;;;4992283;28;20030;-66
2022/11/25 02:23:32;;;;;;;89.78;8.88;;;3.10;99.90;;;;;;4997667;28;20042;-67
2022/11/25 02:25:57;;;;;;;130.13;10.90;;;3.10;99.90;;;;;;4994541;28;20580;-66
2022/11/25 02:28:26;;;;;;;130.27;11.27;;;3.20;99.90;;;;;;4997510;28;20022;-67
2022/11/25 02:30:52;;;;;;;87.40;10.15;;;3.10;99.90;;;;;;5001065;28;20077;-66
2022/11/25 02:33:19;;;;;;;80.53;9.68;;;3.20;99.90;;;;;;4995716;28;20030;-66
2022/11/25 02:36:05;;;;;;;93.05;10.02;;;3.20;99.90;;;;;;4993070;28;20039;-66
2022/11/25 02:38:42;;;;;;;75.55;10.73;;;3.30;99.90;;;;;;4996921;28;20112;-66
2022/11/25 02:41:28;;;;;;;113.50;11.85;;;3.30;99.90;;;;;;4996684;28;20186;-66
2022/11/25 02:43:54;;;;;;;106.72;10.52;;;3.40;99.90;;;;;;4994600;28;20501;-66
2022/11/25 02:46:22;;;;;;;97.05;9.68;;;3.40;99.90;;;;;;4995622;28;20018;-66
2022/11/25 02:48:50;;;;;;;138.43;11.57;;;3.40;99.90;;;;;;4993759;28;20104;-66
2022/11/25 02:51:18;;;;;;;161.82;13.02;;;3.50;99.90;;;;;;4998885;28;20030;-65
2022/11/25 02:53:44;;;;;;;101.07;10.82;;;3.50;99.90;;;;;;4998585;28;20041;-67
2022/11/25 02:56:11;;;;;;;95.25;11.20;;;3.50;99.90;;;;;;5001436;28;20037;-67
2022/11/25 02:58:37;;;;;;;91.78;10.40;;;3.60;99.90;;;;;;4995184;28;20125;-66
2022/11/25 03:01:03;;;;;;;100.85;10.48;;;3.60;99.90;;;;;;4997438;28;20579;-66
2022/11/25 03:03:28;;;;;;;103.43;11.13;;;3.60;99.90;;;;;;4995365;28;20540;-67
2022/11/25 03:05:54;;;;;;;176.05;12.40;;;3.50;99.90;;;;;;4993424;28;20030;-66
2022/11/25 03:08:20;;;;;;;66.25;9.95;;;3.50;99.90;;;;;;4997618;28;20050;-66
2022/11/25 03:10:45;;;;;;;129.25;10.68;;;3.50;99.90;;;;;;4996279;28;20405;-66
2022/11/25 03:13:11;;;;;;;126.57;11.82;;;3.40;99.90;;;;;;4997633;28;20109;-67
2022/11/25 03:15:37;;;;;;;115.72;10.20;;;3.40;99.90;;;;;;4997304;28;20470;-66
2022/11/25 03:18:04;;;;;;;90.07;11.07;;;3.40;99.90;;;;;;4995112;28;20028;-66
2022/11/25 03:20:30;;;;;;;109.85;10.60;;;3.40;99.90;;;;;;4991997;28;20374;-67
2022/11/25 03:22:56;;;;;;;152.43;11.13;;;3.40;99.90;;;;;;4996225;28;20077;-66
2022/11/25 03:25:21;;;;;;;107.47;12.35;;;3.40;99.90;;;;;;5004567;28;20018;-66
2022/11/25 03:27:48;;;;;;;121.75;11.50;;;3.40;99.90;;;;;;5001410;28;20046;-67
2022/11/25 03:30:17;;;;;;;94.47;12.32;;;3.50;99.90;;;;;;5002545;28;20034;-66
2022/11/25 03:32:43;;;;;;;154.68;14.88;;;3.60;99.90;;;;;;4999466;28;20089;-66
2022/11/25 03:35:09;;;;;;;75.18;10.82;;;3.60;99.90;;;;;;4999807;28;20034;-67
2022/11/25 03:37:35;;;;;;;143.48;13.70;;;3.70;99.90;;;;;;4997682;28;20037;-66
2022/11/25 03:40:02;;;;;;;74.65;12.07;;;3.70;99.90;;;;;;5000460;28;20026;-66
2022/11/25 03:42:27;;;;;;;85.50;11.73;;;3.70;99.90;;;;;;5000773;28;20028;-66
2022/11/25 03:44:53;;;;;;;164.48;15.25;;;3.80;99.90;;;;;;5001598;28;20419;-66
2022/11/25 03:47:19;;;;;;;144.40;13.95;;;3.80;99.90;;;;;;4997789;28;20038;-66
2022/11/25 03:49:44;;;;;;;117.03;14.77;;;3.80;99.90;;;;;;5002243;28;20117;-67
2022/11/25 03:52:10;;;;;;;78.80;12.13;;;3.90;99.90;;;;;;4998657;28;20393;-66
2022/11/25 03:54:36;;;;;;;77.88;12.82;;;4.00;99.90;;;;;;4996029;28;20025;-66
2022/11/25 03:57:01;;;;;;;93.75;13.68;;;3.90;99.90;;;;;;4996470;28;20449;-67
2022/11/25 03:59:27;;;;;;;63.90;12.60;;;4.00;99.90;;;;;;4994345;28;20057;-66
2022/11/25 04:01:53;;;;;;;165.00;15.10;;;4.00;99.90;;;;;;4998827;28;20030;-66
2022/11/25 04:04:18;;;;;;;116.63;12.52;;;3.90;99.90;;;;;;4999962;28;20077;-67
2022/11/25 04:06:44;;;;;;;175.75;15.40;;;3.90;99.90;;;;;;4997830;28;20054;-66
2022/11/25 04:09:13;;;;;;;153.10;15.07;;;3.90;99.90;;;;;;4997268;28;20427;-67
2022/11/25 04:14:23;;;;;;;162.77;14.13;;;3.90;99.90;;;;;;4995665;28;20101;-66
2022/11/25 04:16:49;;;;;;;204.15;17.75;;;3.90;99.90;;;;;;4995090;28;20481;-66
2022/11/25 04:19:14;;;;;;;265.27;20.88;;;3.90;99.90;;;;;;5000207;28;20041;-66
2022/11/25 04:21:40;;;;;;;182.38;15.95;;;3.80;99.90;;;;;;4997138;28;20057;-66
2022/11/25 04:24:06;;;;;;;176.02;17.00;;;3.90;99.90;;;;;;4994528;28;20030;-66
2022/11/25 04:26:32;;;;;;;120.18;15.82;;;3.90;99.90;;;;;;4998065;28;20042;-66
2022/11/25 04:28:57;;;;;;;293.83;20.88;;;3.90;99.90;;;;;;5002117;28;20512;-66
2022/11/25 04:31:23;;;;;;;189.85;16.38;;;3.90;99.90;;;;;;4999551;28;20420;-66
2022/11/25 04:33:49;;;;;;;272.98;19.77;;;3.90;99.90;;;;;;5004443;28;20531;-66
2022/11/25 04:36:14;;;;;;;150.32;16.67;;;3.90;99.90;;;;;;4994896;28;20026;-66
2022/11/25 04:38:40;;;;;;;214.85;18.00;;;3.90;99.90;;;;;;5002940;28;20433;-66
2022/11/25 04:41:06;;;;;;;128.93;13.75;;;3.90;99.90;;;;;;4994109;28;20084;-66
2022/11/25 04:43:31;;;;;;;197.32;17.60;;;3.90;99.90;;;;;;4996494;28;20276;-67
2022/11/25 04:45:58;;;;;;;226.10;17.90;;;3.80;99.90;;;;;;5004320;28;20022;-66
2022/11/25 04:48:23;;;;;;;204.15;17.73;;;3.90;99.90;;;;;;4999720;28;20029;-66
2022/11/25 04:50:49;;;;;;;267.48;20.80;;;3.80;99.90;;;;;;5000346;28;20029;-66
2022/11/25 04:53:15;;;;;;;140.18;14.60;;;3.80;99.90;;;;;;4998346;28;20026;-66
2022/11/25 04:55:41;;;;;;;192.48;17.35;;;3.90;99.90;;;;;;4999726;28;20549;-66
2022/11/25 04:58:07;;;;;;;186.15;15.48;;;3.90;99.90;;;;;;4995497;28;20034;-66
2022/11/25 05:00:33;;;;;;;288.13;22.30;;;3.90;99.90;;;;;;4996782;28;20041;-66
2022/11/25 05:02:58;;;;;;;163.70;15.73;;;3.80;99.90;;;;;;4995413;28;20038;-65
2022/11/25 05:05:24;;;;;;;128.05;14.43;;;3.80;99.90;;;;;;4999930;28;20026;-65
2022/11/25 05:07:50;;;;;;;98.65;12.90;;;3.80;99.90;;;;;;4999202;28;20277;-65
2022/11/25 05:10:15;;;;;;;129.15;12.88;;;3.80;99.90;;;;;;5006183;28;20109;-65
2022/11/25 05:12:41;;;;;;;132.57;16.10;;;3.80;99.90;;;;;;5004998;28;20061;-65
2022/11/25 05:15:07;;;;;;;147.57;15.35;;;3.80;99.90;;;;;;4996080;28;20034;-65
2022/11/25 05:17:34;;;;;;;183.00;16.60;;;3.80;99.90;;;;;;4999064;28;20617;-65
2022/11/25 05:20:00;;;;;;;126.18;13.25;;;3.70;99.90;;;;;;4998818;28;20033;-65
2022/11/25 05:22:30;;;;;;;145.68;14.45;;;3.80;99.90;;;;;;4997569;28;20026;-66
2022/11/25 05:24:56;;;;;;;178.02;15.75;;;3.80;99.90;;;;;;4996896;28;20031;-65
2022/11/25 05:27:23;;;;;;;157.48;14.95;;;3.80;99.90;;;;;;4993170;28;20033;-65
2022/11/25 05:29:49;;;;;;;143.82;14.13;;;3.80;99.90;;;;;;4998587;28;20057;-65
2022/11/25 05:32:15;;;;;;;153.18;14.30;;;3.80;99.90;;;;;;5000606;28;20034;-65
2022/11/25 05:34:41;;;;;;;167.27;13.85;;;3.80;99.90;;;;;;4996612;28;20030;-65
2022/11/25 05:37:09;;;;;;;174.32;14.18;;;3.70;99.90;;;;;;4996009;28;20033;-65
2022/11/25 05:39:35;;;;;;;101.70;12.75;;;3.70;99.90;;;;;;4996977;28;20041;-65
2022/11/25 05:42:01;;;;;;;99.65;11.07;;;3.70;99.90;;;;;;4996254;28;20030;-65
2022/11/25 05:44:27;;;;;;;163.38;16.33;;;3.70;99.90;;;;;;4997001;28;20125;-65
2022/11/25 05:46:52;;;;;;;143.43;14.77;;;3.70;99.90;;;;;;4996377;28;20030;-65
2022/11/25 05:49:19;;;;;;;200.52;17.48;;;3.70;99.90;;;;;;4996706;28;20056;-65
2022/11/25 05:51:45;;;;;;;149.10;16.15;;;3.70;99.90;;;;;;5001448;28;20036;-65
2022/11/25 05:54:12;;;;;;;119.72;12.80;;;3.80;99.90;;;;;;4999525;28;20038;-66
2022/11/25 05:56:38;;;;;;;185.45;18.02;;;3.70;99.90;;;;;;4995668;28;20034;-66
2022/11/25 05:59:04;;;;;;;173.15;14.23;;;3.70;99.90;;;;;;4998721;28;20140;-65
2022/11/25 06:01:29;;;;;;;148.98;15.88;;;3.70;99.90;;;;;;4998125;28;20037;-66
2022/11/25 06:03:59;;;;;;;152.27;16.52;;;3.60;99.90;;;;;;4998129;28;20048;-65
2022/11/25 06:06:24;;;;;;;177.50;17.60;;;3.60;99.90;;;;;;4993179;28;20034;-65
2022/11/25 06:08:50;;;;;;;167.32;17.45;;;3.60;99.90;;;;;;4997218;28;20033;-65
2022/11/25 06:11:16;;;;;;;191.07;18.02;;;3.60;99.90;;;;;;5000730;28;20110;-65
2022/11/25 06:13:43;;;;;;;139.52;16.38;;;3.60;99.90;;;;;;4998135;28;20076;-65
2022/11/25 06:16:18;;;;;;;169.43;19.48;;;3.60;99.90;;;;;;4994526;28;20038;-67
2022/11/25 06:18:43;;;;;;;158.07;16.60;;;3.60;99.90;;;;;;4995796;28;20022;-65
2022/11/25 06:21:10;;;;;;;147.77;17.63;;;3.50;99.90;;;;;;4993102;28;20056;-66
2022/11/25 06:23:37;;;;;;;110.22;17.35;;;3.60;99.90;;;;;;4998990;28;20033;-66
2022/11/25 06:26:04;;;;;;;147.82;17.70;;;3.60;99.90;;;;;;4997354;28;20065;-66
2022/11/25 06:28:30;;;;;;;144.55;17.95;;;3.60;99.90;;;;;;5000255;28;20023;-66
2022/11/25 06:30:56;;;;;;;110.20;15.65;;;3.60;99.90;;;;;;4999124;28;20022;-66
2022/11/25 06:33:21;;;;;;;101.82;17.48;;;3.60;99.90;;;;;;5000302;28;20034;-66
2022/11/25 06:35:47;;;;;;;119.55;17.85;;;3.60;99.90;;;;;;5000263;28;20034;-65
2022/11/25 06:38:12;;;;;;;110.50;16.42;;;3.60;99.90;;;;;;4996357;28;20030;-66
2022/11/25 06:40:38;;;;;;;92.93;17.02;;;3.50;99.90;;;;;;4997345;28;20205;-65
2022/11/25 06:43:04;;;;;;;89.20;14.15;;;3.50;99.90;;;;;;4998176;28;20022;-65
2022/11/25 06:45:31;;;;;;;127.90;17.17;;;3.50;99.90;;;;;;4993086;28;20673;-65
2022/11/25 06:47:56;;;;;;;182.82;18.58;;;3.50;99.90;;;;;;4996087;28;20030;-65
2022/11/25 06:50:22;;;;;;;113.30;15.20;;;3.50;99.90;;;;;;4998840;28;20089;-65
2022/11/25 06:52:47;;;;;;;100.72;15.27;;;3.50;99.90;;;;;;4998808;28;20061;-65
2022/11/25 06:55:13;;;;;;;130.98;17.45;;;3.50;99.90;;;;;;4996661;28;20040;-65
2022/11/25 06:57:39;;;;;;;98.43;14.55;;;3.50;99.90;;;;;;4996667;28;20113;-65
2022/11/25 07:00:05;;;;;;;123.80;14.52;;;3.50;99.90;;;;;;4997693;28;20038;-65
2022/11/25 07:02:31;;;;;;;83.57;14.13;;;3.50;99.90;;;;;;4996571;28;20057;-65
2022/11/25 07:04:57;;;;;;;61.58;13.75;;;3.50;99.90;;;;;;4999372;28;20030;-65
2022/11/25 07:07:22;;;;;;;72.70;16.20;;;3.50;99.90;;;;;;5003108;28;20432;-65
2022/11/25 07:09:48;;;;;;;55.17;14.98;;;3.50;99.90;;;;;;5002474;28;20032;-65
2022/11/25 07:12:14;;;;;;;45.28;14.32;;;3.50;99.90;;;;;;5001341;28;20057;-65
2022/11/25 07:14:39;;;;;;;42.55;13.98;;;3.50;99.90;;;;;;5000560;28;20196;-65
2022/11/25 07:17:05;;;;;;;43.40;14.07;;;3.50;99.90;;;;;;4998120;28;20030;-65
2022/11/25 07:19:34;;;;;;;36.80;14.07;;;3.40;99.90;;;;;;4996749;28;20034;-65
2022/11/25 07:22:00;;;;;;;36.50;14.25;;;3.40;99.90;;;;;;5001962;28;20215;-65
2022/11/25 07:24:26;;;;;;;46.28;14.48;;;3.50;99.90;;;;;;4999304;28;20035;-65
2022/11/25 07:26:51;;;;;;;32.90;13.50;;;3.40;99.90;;;;;;5005139;28;20046;-65
2022/11/25 07:29:18;;;;;;;28.73;12.73;;;3.40;99.90;;;;;;4996657;28;20041;-65
2022/11/25 07:31:45;;;;;;;39.67;14.73;;;3.40;99.90;;;;;;5001266;28;20034;-65
2022/11/25 07:34:16;;;;;;;39.25;14.18;;;3.30;99.90;;;;;;4995723;28;20110;-66
2022/11/25 07:36:42;;;;;;;24.08;12.20;;;3.30;99.90;;;;;;5000063;28;20026;-66
2022/11/25 07:39:11;;;;;;;33.67;12.75;;;3.20;99.90;;;;;;4997456;28;20031;-65
2022/11/25 07:41:37;;;;;;;34.60;12.85;;;3.20;99.90;;;;;;5004096;28;20065;-65
2022/11/25 07:44:04;;;;;;;33.05;13.38;;;3.20;99.90;;;;;;4996160;28;20381;-65
2022/11/25 07:46:33;;;;;;;33.63;14.00;;;3.20;99.90;;;;;;5000247;28;20053;-65
2022/11/25 07:49:02;;;;;;;36.47;14.90;;;3.20;99.90;;;;;;5000848;28;20385;-65
2022/11/25 07:51:31;;;;;;;38.92;13.70;;;3.30;99.90;;;;;;4997361;28;20058;-65
2022/11/25 07:53:59;;;;;;;35.42;12.88;;;3.30;99.90;;;;;;4998567;28;20031;-65
2022/11/25 07:56:25;;;;;;;30.95;12.95;;;3.30;99.90;;;;;;4993838;28;20493;-65
2022/11/25 07:58:51;;;;;;;31.77;13.32;;;3.30;99.90;;;;;;4999993;28;20030;-65
2022/11/25 08:01:17;;;;;;;32.63;13.43;;;3.30;99.90;;;;;;4997339;28;20085;-65
2022/11/25 08:03:45;;;;;;;32.60;12.10;;;3.30;99.90;;;;;;4999694;28;20037;-65
2022/11/25 08:06:13;;;;;;;32.88;13.02;;;3.40;99.90;;;;;;5001105;28;20034;-65
2022/11/25 08:08:40;;;;;;;30.85;11.85;;;3.40;99.90;;;;;;5000550;28;21201;-65
2022/11/25 08:11:14;;;;;;;33.78;12.80;;;3.50;99.90;;;;;;5001330;28;20037;-65
2022/11/25 08:13:40;;;;;;;25.77;12.63;;;3.40;99.90;;;;;;5004784;28;20046;-65
2022/11/25 08:16:06;;;;;;;45.35;15.57;;;3.50;99.90;;;;;;4997733;28;20448;-65
2022/11/25 08:18:32;;;;;;;32.10;12.95;;;3.50;99.90;;;;;;4998977;28;20111;-65
2022/11/25 08:21:04;;;;;;;34.63;12.52;;;3.60;99.90;;;;;;4995157;28;20031;-65
2022/11/25 08:23:30;;;;;;;29.95;11.90;;;3.70;99.90;;;;;;4998587;28;20109;-65
2022/11/25 08:25:56;;;;;;;32.95;13.18;;;3.70;99.90;;;;;;4999971;28;20389;-65
2022/11/25 08:28:22;;;;;;;36.25;14.18;;;3.70;99.90;;;;;;5001588;28;20030;-65
2022/11/25 08:30:48;;;;;;;28.27;13.73;;;3.80;99.90;;;;;;5001078;28;20018;-65
2022/11/25 08:33:13;;;;;;;28.98;12.93;;;3.90;99.90;;;;;;4998861;28;20032;-65
2022/11/25 08:35:39;;;;;;;30.88;12.50;;;4.00;99.90;;;;;;4999662;28;20039;-67
2022/11/25 08:38:06;;;;;;;25.52;12.10;;;4.00;99.90;;;;;;4999454;28;20533;-65
2022/11/25 08:40:34;;;;;;;28.75;12.90;;;4.00;99.90;;;;;;5001008;28;20030;-67
2022/11/25 08:42:59;;;;;;;29.70;12.93;;;4.10;99.90;;;;;;4998605;28;20118;-65
2022/11/25 08:45:25;;;;;;;25.38;12.52;;;4.10;99.90;;;;;;4999479;28;20748;-65
2022/11/25 08:47:51;;;;;;;26.70;13.70;;;4.20;99.90;;;;;;4998070;28;20037;-65
2022/11/25 08:50:17;;;;;;;27.75;12.68;;;4.20;99.90;;;;;;4998353;28;20033;-67
2022/11/25 08:52:42;;;;;;;22.05;12.05;;;4.30;99.90;;;;;;5002358;28;20493;-67
2022/11/25 08:55:09;;;;;;;27.25;11.70;;;4.40;99.90;;;;;;4997128;28;20032;-69
2022/11/25 08:57:34;;;;;;;28.35;12.55;;;4.50;99.90;;;;;;5000664;28;20540;-67
2022/11/25 09:00:00;;;;;;;23.70;11.20;;;4.60;99.90;;;;;;5000992;28;20047;-67
2022/11/25 09:02:26;;;;;;;22.02;12.23;;;4.70;99.90;;;;;;4992791;28;20027;-67
2022/11/25 09:04:52;;;;;;;26.23;12.02;;;4.80;99.90;;;;;;4994479;28;20034;-67
2022/11/25 09:07:17;;;;;;;20.15;11.32;;;5.10;99.90;;;;;;4998858;28;20367;-67
2022/11/25 09:09:43;;;;;;;15.85;9.90;;;5.10;99.90;;;;;;4996342;28;20080;-67
2022/11/25 09:12:09;;;;;;;17.52;9.48;;;5.10;99.90;;;;;;4998317;28;20038;-67
2022/11/25 09:14:34;;;;;;;12.52;9.30;;;5.20;99.90;;;;;;4996958;28;20038;-67
2022/11/25 09:17:00;;;;;;;12.85;8.27;;;5.20;99.90;;;;;;4999404;28;20026;-67
2022/11/25 09:19:27;;;;;;;11.23;7.93;;;5.20;99.90;;;;;;4994851;28;20073;-67
2022/11/25 09:21:53;;;;;;;11.93;8.68;;;5.20;99.90;;;;;;4996709;28;20030;-67
2022/11/25 09:24:19;;;;;;;11.55;9.02;;;5.10;99.90;;;;;;4995413;28;20061;-67
2022/11/25 09:26:45;;;;;;;10.55;7.97;;;4.90;99.90;;;;;;4997079;28;20065;-67
2022/11/25 09:29:12;;;;;;;15.43;9.15;;;4.90;99.90;;;;;;4997363;28;20149;-67
2022/11/25 09:31:39;;;;;;;11.55;8.10;;;4.90;99.90;;;;;;5010623;28;20045;-67
2022/11/25 09:34:06;;;;;;;13.50;9.60;;;4.90;99.90;;;;;;4991661;28;20027;-67
2022/11/25 09:36:31;;;;;;;12.13;8.43;;;5.00;99.90;;;;;;4996687;28;20089;-67
2022/11/25 09:38:57;;;;;;;10.73;8.82;;;5.10;99.90;;;;;;5000093;28;20034;-67
2022/11/25 09:47:59;;;;;;;8.65;7.53;;;5.50;99.90;;;;;;4994848;28;20041;-65
2022/11/25 09:50:47;;;;;;;10.80;8.40;;;5.70;99.90;;;;;;4993717;28;20727;-67
2022/11/25 09:53:34;;;;;;;9.55;7.45;;;6.10;99.90;;;;;;4993697;28;20039;-67
2022/11/25 09:56:05;;;;;;;7.38;6.22;;;6.40;99.90;;;;;;4996075;28;20097;-67
2022/11/25 09:59:04;;;;;;;6.82;6.13;;;6.40;99.90;;;;;;5000000;28;20099;-68
2022/11/25 10:01:33;;;;;;;8.73;6.40;;;6.10;99.90;;;;;;4990128;28;20106;-67
2022/11/25 10:04:14;;;;;;;14.18;7.47;;;6.20;99.90;;;;;;5001491;28;20034;-67
2022/11/25 10:06:50;;;;;;;7.65;6.60;;;6.40;99.90;;;;;;4996514;28;20049;-67
2022/11/25 10:09:21;;;;;;;9.25;7.93;;;6.50;99.90;;;;;;4994759;28;20042;-67
2022/11/25 10:11:47;;;;;;;8.73;7.82;;;6.60;99.90;;;;;;4996249;28;20042;-68
2022/11/25 10:14:26;;;;;;;10.10;7.82;;;6.70;99.90;;;;;;4996643;28;20089;-67
2022/11/25 10:17:08;;;;;;;9.73;7.28;;;6.80;99.90;;;;;;4994707;28;20038;-67
2022/11/25 10:19:33;;;;;;;8.82;6.78;;;7.00;99.90;;;;;;5000739;28;20072;-67
2022/11/25 10:22:09;;;;;;;8.27;6.38;;;7.20;99.90;;;;;;4995930;28;20370;-68
2022/11/25 10:24:35;;;;;;;10.85;7.45;;;7.40;99.90;;;;;;4995980;28;20070;-67
2022/11/25 10:27:07;;;;;;;10.02;7.00;;;7.50;99.90;;;;;;4997235;28;20057;-67
2022/11/25 10:29:37;;;;;;;6.50;5.72;;;7.50;99.90;;;;;;4998368;28;20041;-68
2022/11/25 10:32:35;;;;;;;11.27;6.32;;;7.40;99.90;;;;;;4997221;28;20034;-67
2022/11/25 10:35:11;;;;;;;10.15;7.20;;;7.20;99.90;;;;;;4994950;28;20030;-67
2022/11/25 10:37:43;;;;;;;7.53;5.70;;;7.10;99.90;;;;;;4993383;28;20054;-67
2022/11/25 10:40:16;;;;;;;8.65;7.07;;;6.90;99.90;;;;;;4998920;28;20106;-68
2022/11/25 10:42:42;;;;;;;8.45;6.63;;;6.90;99.90;;;;;;5001029;28;20049;-67
2022/11/25 10:45:10;;;;;;;8.52;7.68;;;6.80;99.90;;;;;;4997207;28;20109;-68
2022/11/25 10:47:36;;;;;;;8.70;7.22;;;6.60;99.90;;;;;;4994357;28;20034;-68
2022/11/25 10:50:20;;;;;;;9.15;6.80;;;6.40;99.90;;;;;;4996233;28;20038;-68
2022/11/25 10:52:54;;;;;;;10.82;7.10;;;6.20;99.90;;;;;;4993227;28;20109;-67
2022/11/25 10:55:30;;;;;;;14.73;7.97;;;6.20;99.90;;;;;;4995963;28;20385;-67
2022/11/25 10:57:57;;;;;;;9.55;7.78;;;6.10;99.90;;;;;;5010064;28;20123;-67
2022/11/25 11:00:27;;;;;;;14.40;8.20;;;6.20;99.90;;;;;;4998726;28;20389;-67
2022/11/25 11:02:54;;;;;;;14.07;7.40;;;6.30;99.90;;;;;;4993506;28;20045;-67
2022/11/25 11:05:24;;;;;;;9.93;7.18;;;6.30;99.90;;;;;;5004947;28;20026;-67
2022/11/25 11:08:07;;;;;;;8.82;7.75;;;6.40;99.90;;;;;;5002988;28;20034;-68
2022/11/25 11:10:33;;;;;;;10.65;7.70;;;6.50;99.90;;;;;;4993681;28;20035;-68
2022/11/25 11:12:58;;;;;;;8.40;7.60;;;6.60;99.90;;;;;;4993408;28;20512;-68
2022/11/25 11:15:27;;;;;;;8.20;7.28;;;6.70;99.90;;;;;;4993135;28;20550;-67
2022/11/25 11:17:54;;;;;;;8.68;7.78;;;6.80;99.90;;;;;;5002851;28;20122;-67
2022/11/25 11:20:27;;;;;;;13.05;8.32;;;6.90;99.90;;;;;;4992951;28;20096;-67
2022/11/25 11:23:11;;;;;;;12.52;8.63;;;7.10;99.90;;;;;;4999560;28;20580;-67
2022/11/25 11:25:39;;;;;;;9.77;7.97;;;7.30;99.90;;;;;;4999678;28;20031;-67
2022/11/25 11:28:26;;;;;;;9.57;7.43;;;7.50;99.90;;;;;;4997969;28;20017;-67
2022/11/25 11:31:16;;;;;;;11.63;8.57;;;7.70;99.90;;;;;;4990156;28;20038;-67
2022/11/25 11:33:57;;;;;;;7.55;6.57;;;7.80;99.90;;;;;;4994263;28;20046;-67
2022/11/25 11:36:42;;;;;;;10.05;5.90;;;7.80;99.90;;;;;;4999424;28;20034;-66
2022/11/25 11:39:10;;;;;;;7.78;6.40;;;7.80;99.90;;;;;;4997045;28;20187;-67
2022/11/25 11:41:43;;;;;;;7.25;6.00;;;7.90;99.90;;;;;;4992707;28;20038;-67
2022/11/25 11:44:24;;;;;;;12.02;7.50;;;7.90;99.90;;;;;;4996327;28;20027;-67
2022/11/25 11:47:02;;;;;;;9.98;6.95;;;7.80;99.90;;;;;;4997547;28;20500;-67
2022/11/25 11:50:01;;;;;;;7.85;7.03;;;7.80;99.90;;;;;;4998408;28;20026;-68
2022/11/25 11:53:08;;;;;;;7.80;7.00;;;7.70;99.90;;;;;;5001341;28;20100;-68
2022/11/25 11:55:52;;;;;;;14.30;7.57;;;7.60;99.90;;;;;;4982619;28;20716;-67
2022/11/25 11:58:39;;;;;;;8.32;7.20;;;7.60;99.90;;;;;;4998953;28;20049;-67
2022/11/25 12:01:33;;;;;;;9.48;7.63;;;7.60;99.90;;;;;;5004352;28;20095;-68
2022/11/25 12:04:42;;;;;;;9.93;7.78;;;7.60;99.90;;;;;;5001315;28;20097;-67
2022/11/25 12:07:15;;;;;;;10.93;8.65;;;7.60;99.90;;;;;;4963945;28;20053;-67
2022/11/25 12:09:54;;;;;;;8.98;8.07;;;7.60;99.90;;;;;;4980004;28;20399;-67
2022/11/25 12:12:23;;;;;;;9.98;8.57;;;7.60;99.90;;;;;;4977687;28;20042;-67
2022/11/25 12:14:54;;;;;;;9.38;7.57;;;7.50;99.90;;;;;;4977009;28;20448;-67
2022/11/25 12:17:29;;;;;;;8.25;7.45;;;7.50;99.90;;;;;;4978226;28;20035;-67
2022/11/25 12:20:28;;;;;;;9.25;8.20;;;7.60;99.90;;;;;;4982579;28;20045;-67
2022/11/25 12:23:35;;;;;;;10.55;8.70;;;7.70;99.90;;;;;;4980920;28;20067;-68
2022/11/25 12:26:12;;;;;;;14.95;8.30;;;7.80;99.90;;;;;;4966370;28;20560;-67
2022/11/25 12:28:55;;;;;;;8.90;8.10;;;7.70;99.90;;;;;;4985365;28;20035;-67
2022/11/25 12:31:36;;;;;;;10.00;7.90;;;7.70;99.90;;;;;;4974274;28;20038;-67
2022/11/25 12:34:15;;;;;;;10.30;8.32;;;7.80;99.90;;;;;;4977923;28;20109;-67
2022/11/25 12:36:45;;;;;;;11.75;7.65;;;7.70;99.90;;;;;;4978791;28;20485;-67
2022/11/25 12:39:29;;;;;;;13.27;8.52;;;7.80;99.90;;;;;;4979487;28;20027;-67
2022/11/25 12:42:02;;;;;;;9.15;7.65;;;7.80;99.90;;;;;;4979340;28;20541;-67
2022/11/25 12:44:49;;;;;;;9.82;8.40;;;7.80;99.90;;;;;;4981380;28;20118;-67
2022/11/25 12:47:14;;;;;;;8.50;7.70;;;7.80;99.90;;;;;;4976286;28;20125;-67
2022/11/25 12:49:47;;;;;;;11.93;8.75;;;7.80;99.90;;;;;;4979599;28;20174;-67
2022/11/25 12:52:28;;;;;;;11.25;8.82;;;7.80;99.90;;;;;;4976506;28;20034;-68
2022/11/25 12:55:21;;;;;;;9.68;8.55;;;7.80;99.90;;;;;;4977458;28;20030;-67
2022/11/25 12:58:21;;;;;;;9.02;8.13;;;7.70;99.90;;;;;;4974001;28;20130;-67
2022/11/25 13:01:11;;;;;;;10.18;7.85;;;7.60;99.90;;;;;;4972067;28;20047;-67
2022/11/25 13:04:07;;;;;;;15.60;9.27;;;7.50;99.90;;;;;;4979557;28;20038;-67
2022/11/25 13:07:01;;;;;;;12.38;9.07;;;7.40;99.90;;;;;;4979833;28;20038;-67
2022/11/25 13:09:55;;;;;;;10.45;9.32;;;7.50;99.90;;;;;;4973622;28;20090;-67